Startpagina
METAR-TAF:

METAR-TAF

Vliegvelden :

Internationale Luchthaven Antwerpen

Antwerpen, België

breedte: 51-12N, lengte: 004-28E, hoogte: 12 m

Actueel weer

Dit bericht is 11 minuten geleden gemaakt, om 05:20 UTC
Wind 3 kt uit het zuidzuidoosten, variërend tussen het zuidoosten en het zuiden
Temperatuur 6°C
Vochtigheid 93%
Druk 1025 hPa
Zicht 10 km of meer
geen wolken onder 1500 m en geen cumulonimbus

METAR: EBAW 150520Z 16003KT 130V190 CAVOK 06/05 Q1025 NOSIG

Tijdstip: 07:31 (05:31 UTC)

Verwachting

Dit bericht is 3 uur en het 31 minuten geleden gemaakt, om 02:00 UTC
Verwachting geldig van 15 om 03 UTC tot 15 om 12 UTC
Wind 4 kt uit het westzuidwesten
Zicht: 7000 m
Kans 30% :
Tijdelijke
van 15 om 04 UTC tot 15 om 07 UTC
Zicht: 3500 m
nevel, Ondiepe mist

TAF: EBAW 150200Z 1503/1512 24004KT 7000 NSC PROB30 TEMPO 1504/1507 3500 BR MIFG

Waarnemingen en weersverwachtingen van meer dan 4000 vliegvelden (METAR en TAF).

De beschikbare stations zijn de gele en rode punten op de kaart.

Ga met uw muis naar het station om de naam te zien.

Klik dan om waarnemingen en weersverwachtingen te zien.

kaart wijzigen: klik op de groene knoppen met een zwart kruis om in te zoomen, op de groene knop met een streepje om uit te zoomen of op de groene pijlen voor aangrenzende kaarten.


METAR-TAF: